createdAt,value
2023-11-09T00:00:32.375Z,0.49
2023-11-09T00:02:59.226Z,0.39
2023-11-09T00:05:26.359Z,0.33
2023-11-09T00:07:53.975Z,0.25
2023-11-09T00:10:20.596Z,0.18
2023-11-09T00:12:52.022Z,0.14
2023-11-09T00:15:21.400Z,0.13
2023-11-09T00:17:48.391Z,0.27
2023-11-09T00:20:18.673Z,0.38
2023-11-09T00:22:47.719Z,0.49
2023-11-09T00:25:14.974Z,0.39
2023-11-09T00:27:42.408Z,0.37
2023-11-09T00:30:09.392Z,0.27
2023-11-09T00:32:38.066Z,0.22
2023-11-09T00:35:06.512Z,0.09
2023-11-09T00:37:33.219Z,-0.02
2023-11-09T00:40:05.626Z,-0.12
2023-11-09T00:42:34.057Z,-0.18
2023-11-09T00:45:00.957Z,-0.24
2023-11-09T00:47:27.601Z,-0.23
2023-11-09T00:49:54.770Z,-0.21
2023-11-09T00:52:21.808Z,-0.26
2023-11-09T00:54:48.407Z,-0.25
2023-11-09T00:57:15.351Z,-0.26
2023-11-09T00:59:44.846Z,-0.25
2023-11-09T01:02:13.023Z,-0.32
2023-11-09T01:04:39.667Z,-0.32
2023-11-09T01:07:06.617Z,-0.27
2023-11-09T01:09:33.386Z,-0.34
2023-11-09T01:12:00.648Z,-0.34
2023-11-09T01:14:27.969Z,-0.45
2023-11-09T01:16:54.536Z,-0.45
2023-11-09T01:19:21.369Z,-0.50
2023-11-09T01:21:48.074Z,-0.48
2023-11-09T01:24:15.103Z,-0.49
2023-11-09T01:26:42.002Z,-0.50
2023-11-09T01:29:08.823Z,-0.52
2023-11-09T01:31:35.853Z,-0.56
2023-11-09T01:34:07.808Z,-0.51
2023-11-09T01:36:40.463Z,-0.55
2023-11-09T01:39:07.342Z,-0.59
2023-11-09T01:41:33.971Z,-0.66
2023-11-09T01:44:02.841Z,-0.67
2023-11-09T01:46:29.878Z,-0.70
2023-11-09T01:48:57.627Z,-0.75
2023-11-09T01:51:26.715Z,-0.80
2023-11-09T01:53:54.491Z,-0.74
2023-11-09T01:56:23.521Z,-0.50
2023-11-09T01:58:50.851Z,-0.29
2023-11-09T02:01:20.968Z,-0.32
2023-11-09T02:03:47.989Z,-0.18
2023-11-09T02:06:17.340Z,-0.07
2023-11-09T02:08:45.175Z,-0.08
2023-11-09T02:11:11.824Z,0.07
2023-11-09T02:13:38.536Z,0.03
2023-11-09T02:16:07.915Z,-0.01
2023-11-09T02:18:35.012Z,0.00
2023-11-09T02:21:01.874Z,0.07
2023-11-09T02:23:34.244Z,0.04
2023-11-09T02:26:02.690Z,-0.11
2023-11-09T02:28:32.622Z,-0.12
2023-11-09T02:30:59.440Z,-0.07
2023-11-09T02:33:26.235Z,-0.01
2023-11-09T02:35:53.240Z,0.03
2023-11-09T02:38:19.930Z,0.09
2023-11-09T02:40:46.880Z,-0.02
2023-11-09T02:43:14.113Z,-0.21
2023-11-09T02:45:40.724Z,-0.32
2023-11-09T02:48:07.750Z,-0.29
2023-11-09T02:50:35.562Z,-0.05
2023-11-09T02:53:02.284Z,-0.12
2023-11-09T02:55:29.619Z,-0.16
2023-11-09T02:57:56.294Z,-0.20
2023-11-09T03:00:23.242Z,-0.12
2023-11-09T03:02:50.036Z,-0.16
2023-11-09T03:05:22.503Z,-0.29
2023-11-09T03:07:50.284Z,-0.44
2023-11-09T03:10:17.422Z,-0.44
2023-11-09T03:12:45.039Z,-0.52
2023-11-09T03:15:12.058Z,-0.56
2023-11-09T03:17:42.707Z,-0.54
2023-11-09T03:20:15.550Z,-0.54
2023-11-09T03:22:45.935Z,-0.49
2023-11-09T03:25:12.975Z,-0.36
2023-11-09T03:27:39.540Z,-0.19
2023-11-09T03:30:07.061Z,-0.18
2023-11-09T03:32:33.737Z,-0.16
2023-11-09T03:35:00.493Z,-0.13
2023-11-09T03:37:28.262Z,-0.10
2023-11-09T03:39:56.786Z,-0.04
2023-11-09T03:42:24.541Z,-0.10
2023-11-09T03:44:51.282Z,-0.16
2023-11-09T03:47:18.945Z,-0.15
2023-11-09T03:49:45.591Z,-0.33
2023-11-09T03:52:12.303Z,-0.40
2023-11-09T03:54:39.267Z,-0.58
2023-11-09T03:57:06.142Z,-0.59
2023-11-09T03:59:32.803Z,-0.75
2023-11-09T04:01:59.764Z,-0.75
2023-11-09T04:04:27.468Z,-0.94
2023-11-09T04:06:55.584Z,-1.08
2023-11-09T04:09:23.300Z,-1.08
2023-11-09T04:11:50.083Z,-1.13
2023-11-09T04:14:16.917Z,-1.06
2023-11-09T04:16:44.128Z,-1.03
2023-11-09T04:19:10.975Z,-0.89
2023-11-09T04:21:37.998Z,-0.86
2023-11-09T04:24:06.540Z,-0.84
2023-11-09T04:26:34.148Z,-0.82
2023-11-09T04:29:04.573Z,-0.84
2023-11-09T04:31:32.785Z,-0.93
2023-11-09T04:34:10.249Z,-0.94
2023-11-09T04:36:51.076Z,-0.99
2023-11-09T04:39:30.983Z,-0.97
2023-11-09T04:42:05.876Z,-0.99
2023-11-09T04:44:33.645Z,-0.98
2023-11-09T04:47:04.783Z,-0.93
2023-11-09T04:49:32.495Z,-0.89
2023-11-09T04:52:06.363Z,-0.87
2023-11-09T04:54:46.340Z,-0.83
2023-11-09T04:57:36.360Z,-0.76
2023-11-09T05:00:26.329Z,-0.74
2023-11-09T05:03:11.794Z,-0.82
2023-11-09T05:05:57.452Z,-0.86
2023-11-09T05:08:24.709Z,-0.81
2023-11-09T05:10:51.304Z,-0.88
2023-11-09T05:13:18.233Z,-0.94
2023-11-09T05:15:46.239Z,-0.87
2023-11-09T05:18:13.209Z,-0.80
2023-11-09T05:20:41.879Z,-0.87
2023-11-09T05:23:09.644Z,-1.05
2023-11-09T05:25:37.701Z,-1.17
2023-11-09T05:28:05.883Z,-1.15
2023-11-09T05:30:32.838Z,-1.17
2023-11-09T05:32:59.534Z,-1.11
2023-11-09T05:35:26.139Z,-1.09
2023-11-09T05:37:53.305Z,-1.16
2023-11-09T05:40:22.056Z,-1.22
2023-11-09T05:42:50.119Z,-1.27
2023-11-09T05:45:16.954Z,-1.32
2023-11-09T05:47:43.917Z,-1.18
2023-11-09T05:50:11.698Z,-0.87
2023-11-09T05:52:38.479Z,-0.95
2023-11-09T05:57:34.623Z,-0.91
2023-11-09T06:00:01.214Z,-0.77
2023-11-09T06:02:30.964Z,-0.80
2023-11-09T06:04:57.705Z,-0.77
2023-11-09T06:07:24.886Z,-0.81
2023-11-09T06:09:54.817Z,-0.80
2023-11-09T06:12:21.598Z,-0.72
2023-11-09T06:14:48.289Z,-0.71
2023-11-09T06:17:15.344Z,-0.76
2023-11-09T06:19:42.795Z,-0.74
2023-11-09T06:22:10.242Z,-0.58
2023-11-09T06:24:38.976Z,-0.53
2023-11-09T06:27:08.149Z,-0.50
2023-11-09T06:29:35.070Z,-0.32
2023-11-09T06:32:01.723Z,-0.42
2023-11-09T06:34:28.399Z,-0.57
2023-11-09T06:36:55.376Z,-0.71
2023-11-09T06:39:23.925Z,-0.62
2023-11-09T06:41:51.017Z,-0.59
2023-11-09T06:44:18.899Z,-0.67
2023-11-09T06:46:46.228Z,-0.62
2023-11-09T06:49:13.258Z,-0.55
2023-11-09T06:51:39.984Z,-0.47
2023-11-09T06:54:07.045Z,-0.46
2023-11-09T06:56:35.736Z,-0.42
2023-11-09T06:59:04.423Z,-0.33
2023-11-09T07:01:36.583Z,-0.24
2023-11-09T07:04:03.694Z,-0.13
2023-11-09T07:06:30.446Z,-0.05
2023-11-09T07:08:57.588Z,0.02
2023-11-09T07:11:24.375Z,0.09
2023-11-09T07:13:51.175Z,0.19
2023-11-09T07:16:18.016Z,0.21
2023-11-09T07:18:46.620Z,0.32
2023-11-09T07:21:13.256Z,0.41
2023-11-09T07:23:40.196Z,0.60
2023-11-09T07:26:11.792Z,0.70
2023-11-09T07:28:38.671Z,0.84
2023-11-09T07:31:05.975Z,1.05
2023-11-09T07:33:32.880Z,1.24
2023-11-09T07:36:00.939Z,1.38
2023-11-09T07:38:28.030Z,1.51
2023-11-09T07:40:54.909Z,1.48
2023-11-09T07:43:22.925Z,1.45
2023-11-09T07:45:49.850Z,1.50
2023-11-09T07:48:17.362Z,1.63
2023-11-09T07:50:44.225Z,1.84
2023-11-09T07:53:10.934Z,2.03
2023-11-09T07:55:38.121Z,2.35
2023-11-09T07:58:05.779Z,2.63
2023-11-09T08:00:32.765Z,2.81
2023-11-09T08:02:59.623Z,2.96
2023-11-09T08:05:26.397Z,3.01
2023-11-09T08:07:54.728Z,2.91
2023-11-09T08:10:25.422Z,2.97
2023-11-09T08:12:54.070Z,2.95
2023-11-09T08:15:20.991Z,3.02
2023-11-09T08:17:48.737Z,3.43
2023-11-09T08:20:16.695Z,3.88
2023-11-09T08:22:46.152Z,4.35
2023-11-09T08:25:15.248Z,4.73
2023-11-09T08:27:42.796Z,4.92
2023-11-09T08:30:11.143Z,5.34
2023-11-09T08:32:46.881Z,5.41
2023-11-09T08:35:14.516Z,5.65
2023-11-09T08:37:42.211Z,6.10
2023-11-09T08:40:18.132Z,6.29
2023-11-09T08:42:46.884Z,6.19
2023-11-09T08:45:13.943Z,6.66
2023-11-09T08:47:41.166Z,7.21
2023-11-09T08:50:10.178Z,7.32
2023-11-09T08:52:41.581Z,7.39
2023-11-09T08:55:10.035Z,7.37
2023-11-09T08:57:38.469Z,7.60
2023-11-09T09:00:07.555Z,8.20
2023-11-09T09:02:35.758Z,8.32
2023-11-09T09:05:02.920Z,8.34
2023-11-09T09:07:29.993Z,8.52
2023-11-09T09:09:56.792Z,8.69
2023-11-09T09:12:23.389Z,8.97
2023-11-09T09:14:52.294Z,9.39
2023-11-09T09:17:19.854Z,9.52
2023-11-09T09:19:47.407Z,9.66
2023-11-09T09:22:16.706Z,10.34
2023-11-09T09:24:43.623Z,10.50
2023-11-09T09:27:10.533Z,10.94
2023-11-09T09:29:37.324Z,10.95
2023-11-09T09:32:09.528Z,10.06
2023-11-09T09:34:36.334Z,9.87
2023-11-09T09:37:04.264Z,9.70
2023-11-09T09:39:31.004Z,9.57
2023-11-09T09:42:00.308Z,9.18
2023-11-09T09:44:27.751Z,9.57
2023-11-09T09:46:59.617Z,9.58
2023-11-09T09:49:26.978Z,10.29
2023-11-09T09:51:56.433Z,10.92
2023-11-09T09:54:25.652Z,10.94
2023-11-09T09:56:54.734Z,10.69
2023-11-09T09:59:22.617Z,10.38
2023-11-09T10:01:50.883Z,10.10
2023-11-09T10:04:18.179Z,9.87
2023-11-09T10:06:46.650Z,9.91
2023-11-09T10:09:15.936Z,10.23
2023-11-09T10:11:43.639Z,10.18
2023-11-09T10:14:13.038Z,10.08
2023-11-09T10:16:40.146Z,9.95
2023-11-09T10:19:06.969Z,9.90
2023-11-09T10:21:35.269Z,10.09
2023-11-09T10:24:04.087Z,10.57
2023-11-09T10:26:42.276Z,10.58
2023-11-09T10:29:15.269Z,10.54
2023-11-09T10:31:42.980Z,10.74
2023-11-09T10:34:13.265Z,11.20
2023-11-09T10:36:45.723Z,11.66
2023-11-09T10:39:25.147Z,12.04
2023-11-09T10:41:56.653Z,12.54
2023-11-09T10:44:31.773Z,12.86
2023-11-09T10:47:04.335Z,12.64
2023-11-09T10:49:38.094Z,13.05
2023-11-09T10:52:10.139Z,12.48
2023-11-09T10:54:39.001Z,12.36
2023-11-09T10:57:10.669Z,12.30
2023-11-09T10:59:42.553Z,12.18
2023-11-09T11:02:17.741Z,12.36
2023-11-09T11:04:51.057Z,12.60
2023-11-09T11:07:22.796Z,12.49
2023-11-09T11:09:52.537Z,11.95
2023-11-09T11:12:21.122Z,11.69
2023-11-09T11:14:52.496Z,11.85
2023-11-09T11:18:15.073Z,12.60
2023-11-09T11:20:52.756Z,13.76
2023-11-09T11:23:55.733Z,13.03
2023-11-09T11:26:24.601Z,12.40
2023-11-09T11:28:51.299Z,12.69
2023-11-09T11:31:18.974Z,12.41
2023-11-09T11:33:48.542Z,12.40
2023-11-09T11:36:31.340Z,12.37
2023-11-09T11:39:22.316Z,13.10
2023-11-09T11:41:51.319Z,13.04
2023-11-09T11:44:19.613Z,13.08
2023-11-09T11:46:49.151Z,13.30
2023-11-09T11:49:16.520Z,13.70
2023-11-09T11:51:48.047Z,14.41
2023-11-09T11:54:16.842Z,15.26
2023-11-09T11:56:44.293Z,14.94
2023-11-09T11:59:11.261Z,14.91
2023-11-09T12:01:41.575Z,15.75
2023-11-09T12:04:13.047Z,16.51
2023-11-09T12:06:43.139Z,16.88
2023-11-09T12:09:12.835Z,16.52
2023-11-09T12:11:48.522Z,15.53
2023-11-09T12:14:17.528Z,15.48
2023-11-09T12:16:44.348Z,15.25
2023-11-09T12:19:16.119Z,14.37
2023-11-09T12:21:44.472Z,13.53
2023-11-09T12:24:14.672Z,13.48
2023-11-09T12:26:43.660Z,12.76
2023-11-09T12:29:11.230Z,12.60
2023-11-09T12:31:38.662Z,12.35
2023-11-09T12:34:10.937Z,11.81
2023-11-09T12:36:40.889Z,11.50
2023-11-09T12:39:28.311Z,11.28
2023-11-09T12:41:56.948Z,11.26
2023-11-09T12:44:30.468Z,11.30
2023-11-09T12:46:59.547Z,11.20
2023-11-09T12:49:32.364Z,11.08
2023-11-09T12:52:01.110Z,11.17
2023-11-09T12:54:27.710Z,11.38
2023-11-09T12:56:57.898Z,11.58
2023-11-09T12:59:29.936Z,11.62
2023-11-09T13:01:58.039Z,11.76
2023-11-09T13:04:29.262Z,11.73
2023-11-09T13:06:57.390Z,11.52
2023-11-09T13:09:30.905Z,11.37
2023-11-09T13:12:20.093Z,11.43
2023-11-09T13:14:54.051Z,11.44
2023-11-09T13:17:21.272Z,11.49
2023-11-09T13:19:52.756Z,11.90
2023-11-09T13:22:19.873Z,12.38
2023-11-09T13:24:54.779Z,12.68
2023-11-09T13:27:25.689Z,13.02
2023-11-09T13:29:53.209Z,13.34
2023-11-09T13:32:28.027Z,13.41
2023-11-09T13:35:13.488Z,14.75
2023-11-09T13:37:41.184Z,14.03
2023-11-09T13:40:20.606Z,13.88
2023-11-09T13:42:47.499Z,14.46
2023-11-09T13:45:33.044Z,15.95
2023-11-09T13:48:05.554Z,15.80
2023-11-09T13:50:33.260Z,15.79
2023-11-09T13:53:05.437Z,15.69
2023-11-09T13:55:51.864Z,15.90
2023-11-09T13:58:26.168Z,17.29
2023-11-09T14:01:00.755Z,17.98
2023-11-09T14:03:36.879Z,18.32
2023-11-09T14:06:04.004Z,17.15
2023-11-09T14:08:30.793Z,15.87
2023-11-09T14:10:57.570Z,14.91
2023-11-09T14:13:31.667Z,13.94
2023-11-09T14:16:20.300Z,13.20
2023-11-09T14:19:02.699Z,12.78
2023-11-09T14:21:37.205Z,12.41
2023-11-09T14:24:08.474Z,12.04
2023-11-09T14:26:35.550Z,11.88
2023-11-09T14:29:09.685Z,11.48
2023-11-09T14:31:39.601Z,11.16
2023-11-09T14:34:11.266Z,10.78
2023-11-09T14:36:43.197Z,10.67
2023-11-09T14:39:25.335Z,10.65
2023-11-09T14:41:51.984Z,10.45
2023-11-09T14:44:20.269Z,10.34
2023-11-09T14:46:46.887Z,10.43
2023-11-09T14:49:14.919Z,10.52
2023-11-09T14:51:42.899Z,10.34
2023-11-09T14:54:10.642Z,10.29
2023-11-09T14:56:37.389Z,10.19
2023-11-09T14:59:06.626Z,9.95
2023-11-09T15:01:33.555Z,9.92
2023-11-09T15:04:00.386Z,9.81
2023-11-09T15:06:30.427Z,9.58
2023-11-09T15:09:05.034Z,9.45
2023-11-09T15:11:33.446Z,9.40
2023-11-09T15:14:00.274Z,9.31
2023-11-09T15:16:27.778Z,9.35
2023-11-09T15:18:56.141Z,9.48
2023-11-09T15:21:23.229Z,9.30
2023-11-09T15:23:49.992Z,9.23
2023-11-09T15:26:17.070Z,9.05
2023-11-09T15:28:43.863Z,8.90
2023-11-09T15:31:11.469Z,8.67
2023-11-09T15:33:38.055Z,8.59
2023-11-09T15:36:05.449Z,8.45
2023-11-09T15:38:33.015Z,8.40
2023-11-09T15:41:17.869Z,8.25
2023-11-09T15:43:49.826Z,8.08
2023-11-09T15:46:17.032Z,8.06
2023-11-09T15:48:46.783Z,8.06
2023-11-09T15:51:20.045Z,8.03
2023-11-09T15:53:47.318Z,8.16
2023-11-09T15:56:14.290Z,7.98
2023-11-09T15:58:42.775Z,7.92
2023-11-09T16:01:10.899Z,7.87
2023-11-09T16:03:37.896Z,7.83
2023-11-09T16:06:04.810Z,7.84
2023-11-09T16:08:31.605Z,7.89
2023-11-09T16:11:01.360Z,8.01
2023-11-09T16:13:28.519Z,7.95
2023-11-09T16:15:55.476Z,7.92
2023-11-09T16:18:22.289Z,7.85
2023-11-09T16:20:49.621Z,7.81
2023-11-09T16:23:18.662Z,7.80
2023-11-09T16:25:47.742Z,7.84
2023-11-09T16:28:21.583Z,7.76
2023-11-09T16:30:49.366Z,7.77
2023-11-09T16:33:18.402Z,7.67
2023-11-09T16:35:45.609Z,7.55
2023-11-09T16:38:12.547Z,7.44
2023-11-09T16:40:40.275Z,7.33
2023-11-09T16:43:09.676Z,7.33
2023-11-09T16:45:36.565Z,7.32
2023-11-09T16:48:05.713Z,7.29
2023-11-09T16:50:32.838Z,7.29
2023-11-09T16:52:59.601Z,7.32
2023-11-09T16:55:27.114Z,7.42
2023-11-09T16:57:53.925Z,7.43
2023-11-09T17:00:20.707Z,7.45
2023-11-09T17:02:48.293Z,7.51
2023-11-09T17:05:16.523Z,7.54
2023-11-09T17:07:46.037Z,7.58
2023-11-09T17:10:14.466Z,7.51
2023-11-09T17:12:41.757Z,7.40
2023-11-09T17:15:11.326Z,7.37
2023-11-09T17:17:40.456Z,7.39
2023-11-09T17:20:10.612Z,7.43
2023-11-09T17:22:37.890Z,7.52
2023-11-09T17:25:05.616Z,7.59
2023-11-09T17:27:32.297Z,7.71
2023-11-09T17:30:11.011Z,7.72
2023-11-09T17:32:40.596Z,7.56
2023-11-09T17:35:08.810Z,7.53
2023-11-09T17:37:35.641Z,7.68
2023-11-09T17:40:04.457Z,7.74
2023-11-09T17:42:31.575Z,7.67
2023-11-09T17:44:58.285Z,7.75
2023-11-09T17:47:25.216Z,7.71
2023-11-09T17:49:53.092Z,7.74
2023-11-09T17:52:20.464Z,8.02
2023-11-09T17:54:47.450Z,8.00
2023-11-09T17:57:14.907Z,8.12
2023-11-09T17:59:44.758Z,8.14
2023-11-09T18:02:12.896Z,8.00
2023-11-09T18:04:41.961Z,7.86
2023-11-09T18:07:09.482Z,7.75
2023-11-09T18:09:36.249Z,7.68
2023-11-09T18:12:03.912Z,7.67
2023-11-09T18:14:30.606Z,7.79
2023-11-09T18:16:57.399Z,7.66
2023-11-09T18:19:24.826Z,7.76
2023-11-09T18:21:52.754Z,7.70
2023-11-09T18:24:19.756Z,7.63
2023-11-09T18:26:46.833Z,7.70
2023-11-09T18:29:14.064Z,7.76
2023-11-09T18:31:41.006Z,7.78
2023-11-09T18:34:08.083Z,7.72
2023-11-09T18:36:34.805Z,7.83
2023-11-09T18:39:01.478Z,7.94
2023-11-09T18:41:29.317Z,7.90
2023-11-09T18:43:57.083Z,7.83
2023-11-09T18:46:25.333Z,7.83
2023-11-09T18:48:52.549Z,7.78
2023-11-09T18:51:19.939Z,7.71
2023-11-09T18:53:47.784Z,7.66
2023-11-09T18:56:15.810Z,7.72
2023-11-09T18:58:42.527Z,7.84
2023-11-09T19:01:10.098Z,7.75
2023-11-09T19:06:07.894Z,7.67
2023-11-09T19:08:35.003Z,7.84
2023-11-09T19:11:04.844Z,7.74
2023-11-09T19:13:31.489Z,7.71
2023-11-09T19:15:58.315Z,7.67
2023-11-09T19:18:25.606Z,7.69
2023-11-09T19:23:27.099Z,7.65
2023-11-09T19:25:55.543Z,7.75
2023-11-09T19:28:28.779Z,7.91
2023-11-09T19:30:59.303Z,7.83
2023-11-09T19:33:26.473Z,7.75
2023-11-09T19:35:54.422Z,7.72
2023-11-09T19:38:21.153Z,7.70
2023-11-09T19:40:48.729Z,7.71
2023-11-09T19:43:15.610Z,7.70
2023-11-09T19:45:44.240Z,7.66
2023-11-09T19:48:14.589Z,7.77
2023-11-09T19:50:42.118Z,7.76
2023-11-09T19:53:09.977Z,7.70
2023-11-09T19:55:39.606Z,7.62
2023-11-09T19:58:07.690Z,7.67
2023-11-09T20:00:35.032Z,7.77
2023-11-09T20:03:05.700Z,7.81
2023-11-09T20:05:34.956Z,7.81
2023-11-09T20:08:02.548Z,7.69
2023-11-09T20:10:31.273Z,7.60
2023-11-09T20:12:59.294Z,7.66
2023-11-09T20:15:29.152Z,7.68
2023-11-09T20:17:56.206Z,7.63
2023-11-09T20:20:23.519Z,7.56
2023-11-09T20:22:50.438Z,7.58
2023-11-09T20:25:17.877Z,7.60
2023-11-09T20:27:46.058Z,7.63
2023-11-09T20:30:14.252Z,7.66
2023-11-09T20:32:42.897Z,7.53
2023-11-09T20:35:13.864Z,7.44
2023-11-09T20:37:42.162Z,7.47
2023-11-09T20:40:10.786Z,7.43
2023-11-09T20:42:40.490Z,7.47
2023-11-09T20:45:09.740Z,7.48
2023-11-09T20:47:40.931Z,7.40
2023-11-09T20:50:14.935Z,7.34
2023-11-09T20:52:42.908Z,7.43
2023-11-09T20:55:14.182Z,7.35
2023-11-09T20:57:41.530Z,7.29
2023-11-09T21:00:09.824Z,7.28
2023-11-09T21:02:37.116Z,7.31
2023-11-09T21:05:06.094Z,7.29
2023-11-09T21:07:33.441Z,7.30
2023-11-09T21:10:00.316Z,7.30
2023-11-09T21:12:28.869Z,7.25
2023-11-09T21:14:56.761Z,7.26
2023-11-09T21:17:25.585Z,7.31
2023-11-09T21:19:52.506Z,7.33
2023-11-09T21:22:19.595Z,7.25
2023-11-09T21:24:46.565Z,7.19
2023-11-09T21:27:14.775Z,7.22
2023-11-09T21:29:41.752Z,7.27
2023-11-09T21:32:11.648Z,7.24
2023-11-09T21:34:41.135Z,7.12
2023-11-09T21:37:08.636Z,7.14
2023-11-09T21:39:38.688Z,7.19
2023-11-09T21:42:12.410Z,7.18
2023-11-09T21:44:40.261Z,7.19
2023-11-09T21:47:07.159Z,7.15
2023-11-09T21:49:37.303Z,7.11
2023-11-09T21:52:06.182Z,7.12
2023-11-09T21:54:33.049Z,7.09
2023-11-09T21:57:00.363Z,7.08
2023-11-09T21:59:28.257Z,7.12
2023-11-09T22:01:55.424Z,7.12
2023-11-09T22:04:25.552Z,7.16
2023-11-09T22:06:54.200Z,7.19
2023-11-09T22:09:22.469Z,7.26
2023-11-09T22:11:50.733Z,7.29
2023-11-09T22:14:18.279Z,7.22
2023-11-09T22:16:45.301Z,7.26
2023-11-09T22:19:11.999Z,7.24
2023-11-09T22:21:39.063Z,7.22
2023-11-09T22:24:06.593Z,7.20
2023-11-09T22:26:34.468Z,7.15
2023-11-09T22:29:01.647Z,7.14
2023-11-09T22:31:29.423Z,7.05
2023-11-09T22:33:56.415Z,7.00
2023-11-09T22:36:23.484Z,6.93
2023-11-09T22:38:50.894Z,6.89
2023-11-09T22:41:18.472Z,6.89
2023-11-09T22:43:46.107Z,6.83
2023-11-09T22:46:15.892Z,6.71
2023-11-09T22:48:42.933Z,6.67
2023-11-09T22:51:10.298Z,6.63
2023-11-09T22:53:38.857Z,6.52
2023-11-09T22:56:07.144Z,6.37
2023-11-09T22:58:34.131Z,6.26
2023-11-09T23:01:05.076Z,6.15
2023-11-09T23:03:33.206Z,6.10
2023-11-09T23:06:00.849Z,6.02
2023-11-09T23:08:27.665Z,5.97
2023-11-09T23:10:54.611Z,5.89
2023-11-09T23:13:21.483Z,5.77
2023-11-09T23:15:48.589Z,5.74
2023-11-09T23:18:16.191Z,5.70
2023-11-09T23:20:43.479Z,5.58
2023-11-09T23:23:10.385Z,5.50
2023-11-09T23:25:36.996Z,5.53
2023-11-09T23:28:03.789Z,5.63
2023-11-09T23:30:30.571Z,5.63
2023-11-09T23:32:57.805Z,5.59
2023-11-09T23:35:24.420Z,5.50
2023-11-09T23:37:51.524Z,5.45
2023-11-09T23:40:18.312Z,5.38
2023-11-09T23:42:48.491Z,5.33
2023-11-09T23:45:15.266Z,5.20
2023-11-09T23:47:42.602Z,5.01
2023-11-09T23:50:11.024Z,4.85
2023-11-09T23:52:38.014Z,4.86
2023-11-09T23:55:06.101Z,4.75
2023-11-09T23:57:33.391Z,4.60
